sensor_id;sensor_type;location;lat;lon;timestamp;P1;durP1;ratioP1;P2;durP2;ratioP2
22929;SDS011;11630;42.660;23.292;2023-12-29T00:01:20;28.60;;;16.37;;
22929;SDS011;11630;42.660;23.292;2023-12-29T00:03:50;26.37;;;16.93;;
22929;SDS011;11630;42.660;23.292;2023-12-29T00:06:21;28.40;;;18.30;;
22929;SDS011;11630;42.660;23.292;2023-12-29T00:08:52;36.57;;;18.83;;
22929;SDS011;11630;42.660;23.292;2023-12-29T00:11:23;33.93;;;19.63;;
22929;SDS011;11630;42.660;23.292;2023-12-29T00:13:54;33.87;;;18.90;;
22929;SDS011;11630;42.660;23.292;2023-12-29T00:16:27;37.67;;;20.40;;
22929;SDS011;11630;42.660;23.292;2023-12-29T00:18:57;33.00;;;18.40;;
22929;SDS011;11630;42.660;23.292;2023-12-29T00:21:28;28.63;;;17.00;;
22929;SDS011;11630;42.660;23.292;2023-12-29T00:23:59;33.03;;;18.93;;
22929;SDS011;11630;42.660;23.292;2023-12-29T00:26:30;36.30;;;18.80;;
22929;SDS011;11630;42.660;23.292;2023-12-29T00:28:59;24.63;;;16.40;;
22929;SDS011;11630;42.660;23.292;2023-12-29T00:31:30;17.83;;;13.10;;
22929;SDS011;11630;42.660;23.292;2023-12-29T00:34:00;28.27;;;14.87;;
22929;SDS011;11630;42.660;23.292;2023-12-29T00:36:31;21.40;;;13.73;;
22929;SDS011;11630;42.660;23.292;2023-12-29T00:39:01;22.97;;;13.63;;
22929;SDS011;11630;42.660;23.292;2023-12-29T00:41:32;23.53;;;14.60;;
22929;SDS011;11630;42.660;23.292;2023-12-29T00:44:03;26.33;;;15.13;;
22929;SDS011;11630;42.660;23.292;2023-12-29T00:46:34;28.20;;;15.60;;
22929;SDS011;11630;42.660;23.292;2023-12-29T00:49:05;29.07;;;16.30;;
22929;SDS011;11630;42.660;23.292;2023-12-29T00:51:39;24.77;;;15.93;;
22929;SDS011;11630;42.660;23.292;2023-12-29T00:54:11;30.70;;;15.10;;
22929;SDS011;11630;42.660;23.292;2023-12-29T00:56:48;23.97;;;16.63;;
22929;SDS011;11630;42.660;23.292;2023-12-29T00:59:23;26.53;;;17.00;;
22929;SDS011;11630;42.660;23.292;2023-12-29T01:01:54;21.03;;;14.10;;
22929;SDS011;11630;42.660;23.292;2023-12-29T01:04:25;27.57;;;17.47;;
22929;SDS011;11630;42.660;23.292;2023-12-29T01:06:56;26.30;;;17.00;;
22929;SDS011;11630;42.660;23.292;2023-12-29T01:09:26;29.20;;;17.60;;
22929;SDS011;11630;42.660;23.292;2023-12-29T01:11:57;30.40;;;18.60;;
22929;SDS011;11630;42.660;23.292;2023-12-29T01:14:28;34.77;;;19.50;;
22929;SDS011;11630;42.660;23.292;2023-12-29T01:16:59;34.13;;;20.47;;
22929;SDS011;11630;42.660;23.292;2023-12-29T01:19:30;34.00;;;21.77;;
22929;SDS011;11630;42.660;23.292;2023-12-29T01:22:02;35.77;;;20.23;;
22929;SDS011;11630;42.660;23.292;2023-12-29T01:24:33;32.07;;;19.33;;
22929;SDS011;11630;42.660;23.292;2023-12-29T01:27:04;36.27;;;21.70;;
22929;SDS011;11630;42.660;23.292;2023-12-29T01:29:35;29.40;;;18.40;;
22929;SDS011;11630;42.660;23.292;2023-12-29T01:32:06;31.83;;;19.47;;
22929;SDS011;11630;42.660;23.292;2023-12-29T01:34:37;39.63;;;22.10;;
22929;SDS011;11630;42.660;23.292;2023-12-29T01:37:08;37.00;;;21.97;;
22929;SDS011;11630;42.660;23.292;2023-12-29T01:39:38;46.33;;;22.20;;
22929;SDS011;11630;42.660;23.292;2023-12-29T01:42:09;38.90;;;22.63;;
22929;SDS011;11630;42.660;23.292;2023-12-29T01:44:41;33.77;;;21.97;;
22929;SDS011;11630;42.660;23.292;2023-12-29T01:47:13;34.23;;;20.83;;
22929;SDS011;11630;42.660;23.292;2023-12-29T01:49:44;36.53;;;19.73;;
22929;SDS011;11630;42.660;23.292;2023-12-29T01:52:16;33.50;;;18.80;;
22929;SDS011;11630;42.660;23.292;2023-12-29T01:54:49;41.57;;;19.97;;
22929;SDS011;11630;42.660;23.292;2023-12-29T01:57:19;32.00;;;20.97;;
22929;SDS011;11630;42.660;23.292;2023-12-29T01:59:49;34.90;;;20.27;;
22929;SDS011;11630;42.660;23.292;2023-12-29T02:02:21;28.43;;;18.03;;
22929;SDS011;11630;42.660;23.292;2023-12-29T02:04:52;32.60;;;17.97;;
22929;SDS011;11630;42.660;23.292;2023-12-29T02:07:22;27.73;;;17.83;;
22929;SDS011;11630;42.660;23.292;2023-12-29T02:09:53;31.23;;;17.50;;
22929;SDS011;11630;42.660;23.292;2023-12-29T02:12:25;27.37;;;16.83;;
22929;SDS011;11630;42.660;23.292;2023-12-29T02:14:56;28.27;;;16.73;;
22929;SDS011;11630;42.660;23.292;2023-12-29T02:17:27;30.63;;;18.03;;
22929;SDS011;11630;42.660;23.292;2023-12-29T02:19:59;26.53;;;17.13;;
22929;SDS011;11630;42.660;23.292;2023-12-29T02:22:31;25.30;;;15.80;;
22929;SDS011;11630;42.660;23.292;2023-12-29T02:25:02;26.03;;;15.93;;
22929;SDS011;11630;42.660;23.292;2023-12-29T02:27:41;27.50;;;15.27;;
22929;SDS011;11630;42.660;23.292;2023-12-29T02:30:37;19.03;;;14.13;;
22929;SDS011;11630;42.660;23.292;2023-12-29T02:33:14;26.07;;;14.67;;
22929;SDS011;11630;42.660;23.292;2023-12-29T02:35:46;19.23;;;13.97;;
22929;SDS011;11630;42.660;23.292;2023-12-29T02:38:18;19.37;;;13.50;;
22929;SDS011;11630;42.660;23.292;2023-12-29T02:40:49;18.90;;;13.30;;
22929;SDS011;11630;42.660;23.292;2023-12-29T02:43:20;25.33;;;15.30;;
22929;SDS011;11630;42.660;23.292;2023-12-29T02:45:51;24.90;;;16.00;;
22929;SDS011;11630;42.660;23.292;2023-12-29T02:48:25;26.23;;;14.80;;
22929;SDS011;11630;42.660;23.292;2023-12-29T02:50:56;21.37;;;14.80;;
22929;SDS011;11630;42.660;23.292;2023-12-29T02:53:27;19.80;;;13.97;;
22929;SDS011;11630;42.660;23.292;2023-12-29T02:55:58;27.47;;;15.67;;
22929;SDS011;11630;42.660;23.292;2023-12-29T02:58:29;22.93;;;15.73;;
22929;SDS011;11630;42.660;23.292;2023-12-29T03:01:00;27.13;;;16.17;;
22929;SDS011;11630;42.660;23.292;2023-12-29T03:03:29;22.80;;;15.67;;
22929;SDS011;11630;42.660;23.292;2023-12-29T03:06:00;30.17;;;16.83;;
22929;SDS011;11630;42.660;23.292;2023-12-29T03:08:31;24.40;;;16.70;;
22929;SDS011;11630;42.660;23.292;2023-12-29T03:11:02;26.07;;;17.20;;
22929;SDS011;11630;42.660;23.292;2023-12-29T03:13:32;22.57;;;15.57;;
22929;SDS011;11630;42.660;23.292;2023-12-29T03:16:03;28.13;;;18.57;;
22929;SDS011;11630;42.660;23.292;2023-12-29T03:18:35;27.90;;;18.63;;
22929;SDS011;11630;42.660;23.292;2023-12-29T03:21:05;34.63;;;22.07;;
22929;SDS011;11630;42.660;23.292;2023-12-29T03:23:36;35.83;;;21.53;;
22929;SDS011;11630;42.660;23.292;2023-12-29T03:26:07;29.77;;;20.30;;
22929;SDS011;11630;42.660;23.292;2023-12-29T03:28:38;33.67;;;19.70;;
22929;SDS011;11630;42.660;23.292;2023-12-29T03:31:09;36.47;;;21.43;;
22929;SDS011;11630;42.660;23.292;2023-12-29T03:33:40;41.83;;;26.17;;
22929;SDS011;11630;42.660;23.292;2023-12-29T03:36:11;28.43;;;18.33;;
22929;SDS011;11630;42.660;23.292;2023-12-29T03:38:42;35.60;;;20.47;;
22929;SDS011;11630;42.660;23.292;2023-12-29T03:41:13;35.33;;;22.03;;
22929;SDS011;11630;42.660;23.292;2023-12-29T03:43:44;27.40;;;18.10;;
22929;SDS011;11630;42.660;23.292;2023-12-29T03:46:19;29.73;;;19.73;;
22929;SDS011;11630;42.660;23.292;2023-12-29T03:48:50;30.93;;;19.37;;
22929;SDS011;11630;42.660;23.292;2023-12-29T03:51:21;27.10;;;18.43;;
22929;SDS011;11630;42.660;23.292;2023-12-29T03:53:52;33.70;;;19.87;;
22929;SDS011;11630;42.660;23.292;2023-12-29T03:56:22;33.53;;;19.27;;
22929;SDS011;11630;42.660;23.292;2023-12-29T03:58:53;34.27;;;21.17;;
22929;SDS011;11630;42.660;23.292;2023-12-29T04:01:24;36.57;;;22.17;;
22929;SDS011;11630;42.660;23.292;2023-12-29T04:03:56;32.40;;;20.30;;
22929;SDS011;11630;42.660;23.292;2023-12-29T04:06:27;40.77;;;22.57;;
22929;SDS011;11630;42.660;23.292;2023-12-29T04:08:58;28.27;;;19.27;;
22929;SDS011;11630;42.660;23.292;2023-12-29T04:11:29;27.13;;;18.83;;
22929;SDS011;11630;42.660;23.292;2023-12-29T04:14:00;27.50;;;18.37;;
22929;SDS011;11630;42.660;23.292;2023-12-29T04:16:30;31.17;;;18.00;;
22929;SDS011;11630;42.660;23.292;2023-12-29T04:19:01;26.20;;;16.80;;
22929;SDS011;11630;42.660;23.292;2023-12-29T04:21:32;22.87;;;17.93;;
22929;SDS011;11630;42.660;23.292;2023-12-29T04:24:03;28.63;;;18.30;;
22929;SDS011;11630;42.660;23.292;2023-12-29T04:26:35;24.13;;;16.80;;
22929;SDS011;11630;42.660;23.292;2023-12-29T04:29:07;24.57;;;16.10;;
22929;SDS011;11630;42.660;23.292;2023-12-29T04:31:37;26.93;;;16.73;;
22929;SDS011;11630;42.660;23.292;2023-12-29T04:34:09;30.03;;;18.47;;
22929;SDS011;11630;42.660;23.292;2023-12-29T04:36:40;27.57;;;16.57;;
22929;SDS011;11630;42.660;23.292;2023-12-29T04:39:10;26.07;;;18.17;;
22929;SDS011;11630;42.660;23.292;2023-12-29T04:41:41;25.27;;;17.77;;
22929;SDS011;11630;42.660;23.292;2023-12-29T04:44:11;29.57;;;20.47;;
22929;SDS011;11630;42.660;23.292;2023-12-29T04:46:43;30.97;;;20.03;;
22929;SDS011;11630;42.660;23.292;2023-12-29T04:49:14;28.90;;;17.07;;
22929;SDS011;11630;42.660;23.292;2023-12-29T04:51:45;34.67;;;18.07;;
22929;SDS011;11630;42.660;23.292;2023-12-29T04:54:15;25.37;;;16.90;;
22929;SDS011;11630;42.660;23.292;2023-12-29T04:56:45;27.87;;;18.03;;
22929;SDS011;11630;42.660;23.292;2023-12-29T04:59:16;27.00;;;19.33;;
22929;SDS011;11630;42.660;23.292;2023-12-29T05:01:48;35.43;;;20.17;;
22929;SDS011;11630;42.660;23.292;2023-12-29T05:04:19;33.70;;;19.53;;
22929;SDS011;11630;42.660;23.292;2023-12-29T05:06:49;22.63;;;17.13;;
22929;SDS011;11630;42.660;23.292;2023-12-29T05:09:20;26.77;;;17.43;;
22929;SDS011;11630;42.660;23.292;2023-12-29T05:11:50;29.03;;;18.43;;
22929;SDS011;11630;42.660;23.292;2023-12-29T05:14:20;30.73;;;18.23;;
22929;SDS011;11630;42.660;23.292;2023-12-29T05:16:51;29.50;;;18.27;;
22929;SDS011;11630;42.660;23.292;2023-12-29T05:19:22;28.87;;;17.90;;
22929;SDS011;11630;42.660;23.292;2023-12-29T05:21:53;22.33;;;16.93;;
22929;SDS011;11630;42.660;23.292;2023-12-29T05:24:24;26.00;;;17.17;;
22929;SDS011;11630;42.660;23.292;2023-12-29T05:26:55;30.70;;;17.13;;
22929;SDS011;11630;42.660;23.292;2023-12-29T05:29:26;25.10;;;18.17;;
22929;SDS011;11630;42.660;23.292;2023-12-29T05:31:57;28.50;;;20.33;;
22929;SDS011;11630;42.660;23.292;2023-12-29T05:34:28;29.97;;;18.60;;
22929;SDS011;11630;42.660;23.292;2023-12-29T05:36:59;35.23;;;19.53;;
22929;SDS011;11630;42.660;23.292;2023-12-29T05:39:30;41.37;;;21.13;;
22929;SDS011;11630;42.660;23.292;2023-12-29T05:42:02;26.43;;;19.07;;
22929;SDS011;11630;42.660;23.292;2023-12-29T05:44:35;32.10;;;20.27;;
22929;SDS011;11630;42.660;23.292;2023-12-29T05:47:05;32.63;;;20.17;;
22929;SDS011;11630;42.660;23.292;2023-12-29T05:49:42;36.27;;;22.73;;
22929;SDS011;11630;42.660;23.292;2023-12-29T05:52:13;36.57;;;22.63;;
22929;SDS011;11630;42.660;23.292;2023-12-29T05:54:44;33.33;;;21.13;;
22929;SDS011;11630;42.660;23.292;2023-12-29T05:57:15;43.83;;;26.10;;
22929;SDS011;11630;42.660;23.292;2023-12-29T05:59:46;38.73;;;25.73;;
22929;SDS011;11630;42.660;23.292;2023-12-29T06:02:16;42.80;;;27.10;;
22929;SDS011;11630;42.660;23.292;2023-12-29T06:04:47;42.20;;;25.57;;
22929;SDS011;11630;42.660;23.292;2023-12-29T06:07:18;43.27;;;25.03;;
22929;SDS011;11630;42.660;23.292;2023-12-29T06:09:49;43.73;;;26.23;;
22929;SDS011;11630;42.660;23.292;2023-12-29T06:12:21;38.70;;;27.17;;
22929;SDS011;11630;42.660;23.292;2023-12-29T06:14:52;40.60;;;26.90;;
22929;SDS011;11630;42.660;23.292;2023-12-29T06:17:23;54.50;;;34.77;;
22929;SDS011;11630;42.660;23.292;2023-12-29T06:19:54;49.90;;;33.07;;
22929;SDS011;11630;42.660;23.292;2023-12-29T06:22:26;58.63;;;33.80;;
22929;SDS011;11630;42.660;23.292;2023-12-29T06:24:56;59.63;;;34.77;;
22929;SDS011;11630;42.660;23.292;2023-12-29T06:27:27;58.50;;;35.93;;
22929;SDS011;11630;42.660;23.292;2023-12-29T06:29:58;62.80;;;36.57;;
22929;SDS011;11630;42.660;23.292;2023-12-29T06:32:30;62.57;;;38.87;;
22929;SDS011;11630;42.660;23.292;2023-12-29T06:35:01;69.87;;;40.13;;
22929;SDS011;11630;42.660;23.292;2023-12-29T06:37:32;46.80;;;33.07;;
22929;SDS011;11630;42.660;23.292;2023-12-29T06:40:03;67.23;;;39.03;;
22929;SDS011;11630;42.660;23.292;2023-12-29T06:42:35;66.93;;;38.53;;
22929;SDS011;11630;42.660;23.292;2023-12-29T06:45:07;74.30;;;45.47;;
22929;SDS011;11630;42.660;23.292;2023-12-29T06:47:37;71.07;;;43.97;;
22929;SDS011;11630;42.660;23.292;2023-12-29T06:50:08;72.13;;;41.50;;
22929;SDS011;11630;42.660;23.292;2023-12-29T06:52:39;74.67;;;44.53;;
22929;SDS011;11630;42.660;23.292;2023-12-29T06:55:12;73.80;;;48.27;;
22929;SDS011;11630;42.660;23.292;2023-12-29T06:57:43;69.47;;;43.73;;
22929;SDS011;11630;42.660;23.292;2023-12-29T07:00:14;67.00;;;43.20;;
22929;SDS011;11630;42.660;23.292;2023-12-29T07:02:45;65.53;;;41.20;;
22929;SDS011;11630;42.660;23.292;2023-12-29T07:05:16;83.13;;;43.57;;
22929;SDS011;11630;42.660;23.292;2023-12-29T07:07:48;65.70;;;42.70;;
22929;SDS011;11630;42.660;23.292;2023-12-29T07:10:18;95.30;;;54.23;;
22929;SDS011;11630;42.660;23.292;2023-12-29T07:12:49;95.63;;;54.10;;
22929;SDS011;11630;42.660;23.292;2023-12-29T07:15:20;86.00;;;52.13;;
22929;SDS011;11630;42.660;23.292;2023-12-29T07:17:51;70.50;;;44.53;;
22929;SDS011;11630;42.660;23.292;2023-12-29T07:20:21;66.13;;;42.50;;
22929;SDS011;11630;42.660;23.292;2023-12-29T07:22:52;78.20;;;44.63;;
22929;SDS011;11630;42.660;23.292;2023-12-29T07:25:23;69.70;;;44.23;;
22929;SDS011;11630;42.660;23.292;2023-12-29T07:27:54;87.50;;;50.63;;
22929;SDS011;11630;42.660;23.292;2023-12-29T07:30:25;81.23;;;49.73;;
22929;SDS011;11630;42.660;23.292;2023-12-29T07:32:55;78.47;;;49.33;;
22929;SDS011;11630;42.660;23.292;2023-12-29T07:35:26;81.83;;;51.40;;
22929;SDS011;11630;42.660;23.292;2023-12-29T07:37:58;79.33;;;49.60;;
22929;SDS011;11630;42.660;23.292;2023-12-29T07:40:29;84.97;;;51.73;;
22929;SDS011;11630;42.660;23.292;2023-12-29T07:43:00;82.20;;;52.03;;
22929;SDS011;11630;42.660;23.292;2023-12-29T07:45:31;79.00;;;50.47;;
22929;SDS011;11630;42.660;23.292;2023-12-29T07:48:02;74.80;;;49.30;;
22929;SDS011;11630;42.660;23.292;2023-12-29T07:50:34;78.23;;;50.17;;
22929;SDS011;11630;42.660;23.292;2023-12-29T07:53:05;81.00;;;52.10;;
22929;SDS011;11630;42.660;23.292;2023-12-29T07:55:39;75.80;;;48.60;;
22929;SDS011;11630;42.660;23.292;2023-12-29T07:58:10;76.83;;;48.70;;
22929;SDS011;11630;42.660;23.292;2023-12-29T08:00:41;79.23;;;48.23;;
22929;SDS011;11630;42.660;23.292;2023-12-29T08:03:11;76.17;;;48.20;;
22929;SDS011;11630;42.660;23.292;2023-12-29T08:05:42;79.13;;;48.57;;
22929;SDS011;11630;42.660;23.292;2023-12-29T08:08:13;90.37;;;53.23;;
22929;SDS011;11630;42.660;23.292;2023-12-29T08:10:44;83.47;;;51.33;;
22929;SDS011;11630;42.660;23.292;2023-12-29T08:13:15;80.93;;;52.10;;
22929;SDS011;11630;42.660;23.292;2023-12-29T08:15:46;72.93;;;49.40;;
22929;SDS011;11630;42.660;23.292;2023-12-29T08:18:17;79.67;;;51.20;;
22929;SDS011;11630;42.660;23.292;2023-12-29T08:20:49;85.70;;;49.77;;
22929;SDS011;11630;42.660;23.292;2023-12-29T08:23:19;78.30;;;52.67;;
22929;SDS011;11630;42.660;23.292;2023-12-29T08:25:50;83.20;;;52.03;;
22929;SDS011;11630;42.660;23.292;2023-12-29T08:28:21;77.87;;;52.60;;
22929;SDS011;11630;42.660;23.292;2023-12-29T08:30:52;90.73;;;53.73;;
22929;SDS011;11630;42.660;23.292;2023-12-29T08:33:22;92.43;;;53.70;;
22929;SDS011;11630;42.660;23.292;2023-12-29T08:35:53;89.33;;;57.83;;
22929;SDS011;11630;42.660;23.292;2023-12-29T08:38:24;89.70;;;55.43;;
22929;SDS011;11630;42.660;23.292;2023-12-29T08:40:55;83.63;;;54.37;;
22929;SDS011;11630;42.660;23.292;2023-12-29T08:43:26;86.37;;;55.43;;
22929;SDS011;11630;42.660;23.292;2023-12-29T08:45:58;82.07;;;51.27;;
22929;SDS011;11630;42.660;23.292;2023-12-29T08:48:29;82.27;;;52.17;;
22929;SDS011;11630;42.660;23.292;2023-12-29T08:51:01;83.13;;;52.00;;
22929;SDS011;11630;42.660;23.292;2023-12-29T08:53:31;85.43;;;51.77;;
22929;SDS011;11630;42.660;23.292;2023-12-29T08:56:01;80.07;;;51.43;;
22929;SDS011;11630;42.660;23.292;2023-12-29T08:58:33;80.50;;;52.80;;
22929;SDS011;11630;42.660;23.292;2023-12-29T09:01:03;78.17;;;50.47;;
22929;SDS011;11630;42.660;23.292;2023-12-29T09:03:34;72.83;;;48.60;;
22929;SDS011;11630;42.660;23.292;2023-12-29T09:06:06;71.57;;;47.83;;
22929;SDS011;11630;42.660;23.292;2023-12-29T09:08:37;75.83;;;49.93;;
22929;SDS011;11630;42.660;23.292;2023-12-29T09:11:08;70.87;;;49.03;;
22929;SDS011;11630;42.660;23.292;2023-12-29T09:13:39;76.23;;;47.63;;
22929;SDS011;11630;42.660;23.292;2023-12-29T09:16:10;76.97;;;49.30;;
22929;SDS011;11630;42.660;23.292;2023-12-29T09:18:41;69.57;;;45.57;;
22929;SDS011;11630;42.660;23.292;2023-12-29T09:21:12;60.90;;;41.03;;
22929;SDS011;11630;42.660;23.292;2023-12-29T09:23:42;60.33;;;41.03;;
22929;SDS011;11630;42.660;23.292;2023-12-29T09:26:14;60.57;;;39.33;;
22929;SDS011;11630;42.660;23.292;2023-12-29T09:28:45;53.10;;;36.60;;
22929;SDS011;11630;42.660;23.292;2023-12-29T09:31:16;58.83;;;37.57;;
22929;SDS011;11630;42.660;23.292;2023-12-29T09:33:51;58.70;;;39.00;;
22929;SDS011;11630;42.660;23.292;2023-12-29T09:36:22;49.97;;;34.77;;
22929;SDS011;11630;42.660;23.292;2023-12-29T09:38:53;47.37;;;31.37;;
22929;SDS011;11630;42.660;23.292;2023-12-29T09:41:24;42.93;;;29.67;;
22929;SDS011;11630;42.660;23.292;2023-12-29T09:43:56;43.90;;;29.80;;
22929;SDS011;11630;42.660;23.292;2023-12-29T09:46:28;50.40;;;31.27;;
22929;SDS011;11630;42.660;23.292;2023-12-29T09:49:01;47.33;;;33.50;;
22929;SDS011;11630;42.660;23.292;2023-12-29T09:51:36;53.70;;;36.33;;
22929;SDS011;11630;42.660;23.292;2023-12-29T09:54:11;51.87;;;35.10;;
22929;SDS011;11630;42.660;23.292;2023-12-29T09:56:42;61.17;;;37.03;;
22929;SDS011;11630;42.660;23.292;2023-12-29T09:59:13;54.00;;;34.50;;
22929;SDS011;11630;42.660;23.292;2023-12-29T10:01:44;54.40;;;34.03;;
22929;SDS011;11630;42.660;23.292;2023-12-29T10:04:16;62.63;;;37.93;;
22929;SDS011;11630;42.660;23.292;2023-12-29T10:06:46;50.37;;;35.10;;
22929;SDS011;11630;42.660;23.292;2023-12-29T10:09:19;68.20;;;38.97;;
22929;SDS011;11630;42.660;23.292;2023-12-29T10:11:51;60.87;;;38.77;;
22929;SDS011;11630;42.660;23.292;2023-12-29T10:17:12;63.30;;;38.80;;
22929;SDS011;11630;42.660;23.292;2023-12-29T10:19:40;62.70;;;37.80;;
22929;SDS011;11630;42.660;23.292;2023-12-29T10:22:17;62.00;;;39.10;;
22929;SDS011;11630;42.660;23.292;2023-12-29T10:24:44;58.50;;;38.63;;
22929;SDS011;11630;42.660;23.292;2023-12-29T10:27:15;61.83;;;38.97;;
22929;SDS011;11630;42.660;23.292;2023-12-29T10:29:46;53.93;;;35.50;;
22929;SDS011;11630;42.660;23.292;2023-12-29T10:32:17;54.27;;;35.13;;
22929;SDS011;11630;42.660;23.292;2023-12-29T10:34:47;52.30;;;34.17;;
22929;SDS011;11630;42.660;23.292;2023-12-29T10:37:22;52.90;;;34.03;;
22929;SDS011;11630;42.660;23.292;2023-12-29T10:39:55;56.63;;;33.03;;
22929;SDS011;11630;42.660;23.292;2023-12-29T10:42:27;53.93;;;35.37;;
22929;SDS011;11630;42.660;23.292;2023-12-29T10:45:05;48.23;;;34.07;;
22929;SDS011;11630;42.660;23.292;2023-12-29T10:47:43;46.00;;;32.17;;
22929;SDS011;11630;42.660;23.292;2023-12-29T10:50:13;47.70;;;31.90;;
22929;SDS011;11630;42.660;23.292;2023-12-29T10:52:44;54.30;;;33.00;;
22929;SDS011;11630;42.660;23.292;2023-12-29T10:55:18;51.77;;;31.87;;
22929;SDS011;11630;42.660;23.292;2023-12-29T10:57:49;51.03;;;31.23;;
22929;SDS011;11630;42.660;23.292;2023-12-29T11:00:21;49.83;;;29.87;;
22929;SDS011;11630;42.660;23.292;2023-12-29T11:02:54;46.97;;;30.90;;
22929;SDS011;11630;42.660;23.292;2023-12-29T11:05:24;46.33;;;28.43;;
22929;SDS011;11630;42.660;23.292;2023-12-29T11:07:55;53.07;;;30.53;;
22929;SDS011;11630;42.660;23.292;2023-12-29T11:10:26;44.00;;;28.40;;
22929;SDS011;11630;42.660;23.292;2023-12-29T11:12:58;48.47;;;30.77;;
22929;SDS011;11630;42.660;23.292;2023-12-29T11:15:29;50.80;;;31.13;;
22929;SDS011;11630;42.660;23.292;2023-12-29T11:18:00;50.80;;;35.97;;
22929;SDS011;11630;42.660;23.292;2023-12-29T11:20:32;47.63;;;33.47;;
22929;SDS011;11630;42.660;23.292;2023-12-29T11:23:06;66.80;;;40.27;;
22929;SDS011;11630;42.660;23.292;2023-12-29T11:25:37;60.10;;;41.13;;
22929;SDS011;11630;42.660;23.292;2023-12-29T11:28:08;69.17;;;42.43;;
22929;SDS011;11630;42.660;23.292;2023-12-29T11:30:41;70.73;;;40.00;;
22929;SDS011;11630;42.660;23.292;2023-12-29T11:33:35;67.60;;;41.40;;
22929;SDS011;11630;42.660;23.292;2023-12-29T11:35:45;61.10;;;41.20;;
22929;SDS011;11630;42.660;23.292;2023-12-29T11:43:57;71.57;;;43.70;;
22929;SDS011;11630;42.660;23.292;2023-12-29T11:46:33;68.07;;;43.33;;
22929;SDS011;11630;42.660;23.292;2023-12-29T11:49:08;66.97;;;43.07;;
22929;SDS011;11630;42.660;23.292;2023-12-29T11:51:43;65.57;;;44.87;;
22929;SDS011;11630;42.660;23.292;2023-12-29T11:54:32;70.30;;;44.30;;
22929;SDS011;11630;42.660;23.292;2023-12-29T11:56:53;64.37;;;42.40;;
22929;SDS011;11630;42.660;23.292;2023-12-29T11:59:25;58.93;;;40.77;;
22929;SDS011;11630;42.660;23.292;2023-12-29T12:01:57;69.63;;;45.53;;
22929;SDS011;11630;42.660;23.292;2023-12-29T12:07:12;67.23;;;43.50;;
22929;SDS011;11630;42.660;23.292;2023-12-29T12:09:43;71.17;;;44.13;;
22929;SDS011;11630;42.660;23.292;2023-12-29T12:12:14;66.93;;;44.53;;
22929;SDS011;11630;42.660;23.292;2023-12-29T12:15:03;59.43;;;41.00;;
22929;SDS011;11630;42.660;23.292;2023-12-29T12:17:35;61.97;;;41.37;;
22929;SDS011;11630;42.660;23.292;2023-12-29T12:20:08;58.77;;;39.00;;
22929;SDS011;11630;42.660;23.292;2023-12-29T12:22:39;54.60;;;35.10;;
22929;SDS011;11630;42.660;23.292;2023-12-29T12:25:13;63.17;;;40.00;;
22929;SDS011;11630;42.660;23.292;2023-12-29T12:27:44;57.47;;;35.03;;
22929;SDS011;11630;42.660;23.292;2023-12-29T12:30:18;58.60;;;36.37;;
22929;SDS011;11630;42.660;23.292;2023-12-29T12:32:57;55.20;;;35.50;;
22929;SDS011;11630;42.660;23.292;2023-12-29T12:35:29;55.67;;;34.87;;
22929;SDS011;11630;42.660;23.292;2023-12-29T12:38:10;54.83;;;34.83;;
22929;SDS011;11630;42.660;23.292;2023-12-29T12:40:41;49.00;;;30.80;;
22929;SDS011;11630;42.660;23.292;2023-12-29T12:43:16;43.73;;;30.23;;
22929;SDS011;11630;42.660;23.292;2023-12-29T12:48:28;45.83;;;27.03;;
22929;SDS011;11630;42.660;23.292;2023-12-29T12:51:02;43.53;;;26.20;;
22929;SDS011;11630;42.660;23.292;2023-12-29T12:53:38;43.90;;;24.67;;
22929;SDS011;11630;42.660;23.292;2023-12-29T12:56:10;30.47;;;17.07;;
22929;SDS011;11630;42.660;23.292;2023-12-29T12:58:42;28.07;;;16.40;;
22929;SDS011;11630;42.660;23.292;2023-12-29T13:01:13;25.47;;;13.77;;
22929;SDS011;11630;42.660;23.292;2023-12-29T13:03:43;32.87;;;14.67;;
22929;SDS011;11630;42.660;23.292;2023-12-29T13:06:15;24.67;;;15.50;;
22929;SDS011;11630;42.660;23.292;2023-12-29T13:08:45;18.43;;;12.10;;
22929;SDS011;11630;42.660;23.292;2023-12-29T13:11:29;25.00;;;13.17;;
22929;SDS011;11630;42.660;23.292;2023-12-29T13:14:00;31.67;;;11.93;;
22929;SDS011;11630;42.660;23.292;2023-12-29T13:16:34;27.77;;;14.13;;
22929;SDS011;11630;42.660;23.292;2023-12-29T13:19:16;22.73;;;13.20;;
22929;SDS011;11630;42.660;23.292;2023-12-29T13:21:47;29.67;;;14.13;;
22929;SDS011;11630;42.660;23.292;2023-12-29T13:24:20;22.17;;;10.93;;
22929;SDS011;11630;42.660;23.292;2023-12-29T13:26:52;21.47;;;11.47;;
22929;SDS011;11630;42.660;23.292;2023-12-29T13:29:26;23.73;;;9.73;;
22929;SDS011;11630;42.660;23.292;2023-12-29T13:31:59;18.30;;;9.43;;
22929;SDS011;11630;42.660;23.292;2023-12-29T13:34:41;15.80;;;9.63;;
22929;SDS011;11630;42.660;23.292;2023-12-29T13:37:30;18.07;;;9.50;;
22929;SDS011;11630;42.660;23.292;2023-12-29T13:42:38;17.17;;;9.73;;
22929;SDS011;11630;42.660;23.292;2023-12-29T13:45:11;23.07;;;10.10;;
22929;SDS011;11630;42.660;23.292;2023-12-29T13:47:45;24.90;;;10.70;;
22929;SDS011;11630;42.660;23.292;2023-12-29T13:50:18;19.17;;;11.73;;
22929;SDS011;11630;42.660;23.292;2023-12-29T13:52:49;26.87;;;11.23;;
22929;SDS011;11630;42.660;23.292;2023-12-29T13:55:21;20.37;;;10.67;;
22929;SDS011;11630;42.660;23.292;2023-12-29T13:57:54;22.87;;;11.00;;
22929;SDS011;11630;42.660;23.292;2023-12-29T14:00:25;29.17;;;12.23;;
22929;SDS011;11630;42.660;23.292;2023-12-29T14:03:01;22.77;;;12.70;;
22929;SDS011;11630;42.660;23.292;2023-12-29T14:08:18;33.70;;;13.13;;
22929;SDS011;11630;42.660;23.292;2023-12-29T14:10:53;30.77;;;12.00;;
22929;SDS011;11630;42.660;23.292;2023-12-29T14:13:24;25.17;;;12.63;;
22929;SDS011;11630;42.660;23.292;2023-12-29T14:15:57;27.50;;;13.03;;
22929;SDS011;11630;42.660;23.292;2023-12-29T14:18:33;31.87;;;12.90;;
22929;SDS011;11630;42.660;23.292;2023-12-29T14:21:01;24.87;;;11.97;;
22929;SDS011;11630;42.660;23.292;2023-12-29T14:23:33;32.83;;;15.13;;
22929;SDS011;11630;42.660;23.292;2023-12-29T14:26:03;23.70;;;11.77;;
22929;SDS011;11630;42.660;23.292;2023-12-29T14:28:34;29.97;;;13.13;;
22929;SDS011;11630;42.660;23.292;2023-12-29T14:31:05;34.23;;;13.40;;
22929;SDS011;11630;42.660;23.292;2023-12-29T14:33:36;28.20;;;12.77;;
22929;SDS011;11630;42.660;23.292;2023-12-29T14:36:07;24.43;;;10.27;;
22929;SDS011;11630;42.660;23.292;2023-12-29T14:38:38;28.73;;;13.70;;
22929;SDS011;11630;42.660;23.292;2023-12-29T14:41:09;33.10;;;12.00;;
22929;SDS011;11630;42.660;23.292;2023-12-29T14:43:40;30.53;;;12.60;;
22929;SDS011;11630;42.660;23.292;2023-12-29T14:46:12;27.43;;;12.67;;
22929;SDS011;11630;42.660;23.292;2023-12-29T14:48:46;25.97;;;12.37;;
22929;SDS011;11630;42.660;23.292;2023-12-29T14:51:17;23.70;;;12.27;;
22929;SDS011;11630;42.660;23.292;2023-12-29T14:53:48;23.77;;;12.73;;